createdAt,value
2022-12-11T00:01:18.918Z,11.60
2022-12-11T00:03:46.800Z,12.47
2022-12-11T00:06:15.520Z,12.60
2022-12-11T00:08:43.201Z,14.00
2022-12-11T00:11:12.062Z,13.57
2022-12-11T00:13:39.400Z,13.30
2022-12-11T00:16:06.729Z,12.57
2022-12-11T00:18:34.119Z,16.73
2022-12-11T00:21:13.204Z,12.00
2022-12-11T00:23:40.640Z,13.30
2022-12-11T00:26:09.615Z,14.00
2022-12-11T00:28:37.359Z,12.70
2022-12-11T00:31:08.359Z,14.20
2022-12-11T00:33:35.917Z,14.50
2022-12-11T00:36:04.007Z,12.63
2022-12-11T00:38:31.363Z,13.77
2022-12-11T00:40:59.446Z,12.23
2022-12-11T00:43:26.805Z,10.77
2022-12-11T00:45:54.218Z,12.87
2022-12-11T00:48:21.721Z,10.20
2022-12-11T00:50:49.279Z,11.67
2022-12-11T00:53:16.602Z,12.20
2022-12-11T00:55:44.600Z,15.47
2022-12-11T00:58:12.602Z,13.53
2022-12-11T01:00:40.559Z,14.20
2022-12-11T01:03:08.755Z,12.73
2022-12-11T01:05:37.679Z,12.10
2022-12-11T01:08:05.406Z,12.37
2022-12-11T01:10:33.203Z,14.03
2022-12-11T01:13:06.400Z,12.53
2022-12-11T01:15:39.980Z,13.77
2022-12-11T01:18:08.720Z,13.60
2022-12-11T01:20:36.119Z,13.83
2022-12-11T01:23:03.440Z,10.83
2022-12-11T01:25:33.519Z,16.50
2022-12-11T01:28:00.922Z,12.37
2022-12-11T01:30:28.384Z,13.80
2022-12-11T01:32:55.960Z,14.23
2022-12-11T01:35:23.359Z,11.57
2022-12-11T01:37:50.723Z,12.43
2022-12-11T01:40:19.173Z,12.03
2022-12-11T01:42:46.702Z,12.27
2022-12-11T01:45:26.613Z,14.03
2022-12-11T01:48:14.678Z,13.80
2022-12-11T01:50:44.879Z,15.00
2022-12-11T01:53:14.483Z,12.23
2022-12-11T01:55:42.202Z,13.57
2022-12-11T01:58:09.719Z,13.17
2022-12-11T02:00:37.121Z,11.70
2022-12-11T02:03:04.523Z,12.60
2022-12-11T02:05:34.522Z,15.00
2022-12-11T02:08:02.992Z,14.50
2022-12-11T02:10:50.841Z,13.17
2022-12-11T02:13:34.358Z,13.73
2022-12-11T02:16:06.901Z,12.50
2022-12-11T02:18:39.999Z,12.90
2022-12-11T02:21:12.360Z,11.73
2022-12-11T02:23:39.722Z,11.60
2022-12-11T02:26:10.039Z,12.20
2022-12-11T02:28:56.884Z,13.10
2022-12-11T02:31:27.442Z,10.30
2022-12-11T02:34:09.121Z,12.67
2022-12-11T02:36:39.520Z,13.40
2022-12-11T02:39:08.444Z,10.67
2022-12-11T02:41:36.120Z,11.63
2022-12-11T02:44:04.562Z,11.60
2022-12-11T02:46:33.400Z,10.13
2022-12-11T02:49:01.321Z,13.13
2022-12-11T02:51:32.079Z,11.87
2022-12-11T02:54:00.439Z,11.60
2022-12-11T02:56:31.559Z,12.83
2022-12-11T02:59:01.081Z,12.87
2022-12-11T03:01:28.660Z,12.97
2022-12-11T03:03:56.960Z,16.27
2022-12-11T03:06:28.524Z,12.20
2022-12-11T03:08:55.839Z,12.47
2022-12-11T03:11:23.119Z,12.20
2022-12-11T03:13:50.520Z,13.53
2022-12-11T03:16:23.964Z,12.53
2022-12-11T03:19:06.003Z,13.77
2022-12-11T03:21:39.480Z,13.07
2022-12-11T03:24:27.159Z,14.53
2022-12-11T03:27:08.173Z,14.97
2022-12-11T03:29:41.612Z,11.57
2022-12-11T03:32:12.079Z,13.73
2022-12-11T03:34:46.078Z,12.37
2022-12-11T03:37:14.880Z,12.63
2022-12-11T03:39:44.439Z,13.10
2022-12-11T03:42:13.959Z,13.60
2022-12-11T03:44:41.999Z,12.43
2022-12-11T03:47:09.844Z,12.73
2022-12-11T03:49:41.520Z,12.90
2022-12-11T03:52:10.320Z,13.07
2022-12-11T03:54:37.759Z,12.17
2022-12-11T03:57:06.201Z,11.57
2022-12-11T03:59:33.560Z,12.53
2022-12-11T04:02:01.285Z,14.77
2022-12-11T04:04:28.876Z,13.13
2022-12-11T04:06:56.278Z,12.70
2022-12-11T04:09:23.719Z,11.57
2022-12-11T04:11:51.002Z,12.43
2022-12-11T04:14:37.080Z,12.70
2022-12-11T04:17:04.480Z,11.67
2022-12-11T04:19:50.519Z,11.57
2022-12-11T04:22:27.239Z,12.60
2022-12-11T04:24:54.601Z,11.93
2022-12-11T04:27:40.639Z,12.57
2022-12-11T04:30:11.560Z,12.93
2022-12-11T04:32:38.999Z,11.40
2022-12-11T04:35:08.201Z,13.50
2022-12-11T04:37:38.842Z,13.90
2022-12-11T04:40:07.201Z,10.33
2022-12-11T04:42:34.526Z,10.57
2022-12-11T04:45:01.839Z,12.67
2022-12-11T04:47:29.319Z,11.90
2022-12-11T04:49:56.799Z,12.87
2022-12-11T04:52:24.080Z,11.57
2022-12-11T04:54:51.679Z,14.50
2022-12-11T04:57:20.918Z,10.27
2022-12-11T04:59:48.563Z,11.90
2022-12-11T05:02:16.640Z,12.23
2022-12-11T05:04:44.478Z,13.03
2022-12-11T05:07:11.958Z,12.33
2022-12-11T05:09:39.241Z,12.30
2022-12-11T05:12:06.690Z,11.93
2022-12-11T05:14:34.159Z,13.33
2022-12-11T05:17:01.524Z,14.77
2022-12-11T05:19:28.888Z,15.73
2022-12-11T05:21:56.199Z,13.53
2022-12-11T05:24:23.560Z,13.20
2022-12-11T05:26:50.801Z,14.73
2022-12-11T05:29:18.280Z,14.23
2022-12-11T05:31:45.677Z,14.33
2022-12-11T05:34:13.439Z,12.60
2022-12-11T05:36:41.162Z,14.00
2022-12-11T05:39:09.841Z,14.73
2022-12-11T05:41:38.519Z,13.37
2022-12-11T05:44:05.999Z,14.00
2022-12-11T05:46:33.420Z,11.90
2022-12-11T05:49:01.882Z,13.37
2022-12-11T05:51:29.721Z,12.83
2022-12-11T05:53:57.723Z,11.80
2022-12-11T05:56:29.762Z,12.23
2022-12-11T05:58:57.560Z,12.03
2022-12-11T06:01:29.681Z,14.60
2022-12-11T06:03:57.678Z,12.07
2022-12-11T06:06:25.998Z,11.17
2022-12-11T06:08:53.838Z,13.20
2022-12-11T06:11:24.109Z,11.90
2022-12-11T06:13:52.516Z,11.93
2022-12-11T06:16:20.332Z,13.80
2022-12-11T06:18:47.840Z,10.97
2022-12-11T06:21:19.796Z,12.03
2022-12-11T06:23:47.597Z,10.13
2022-12-11T06:26:15.745Z,9.10
2022-12-11T06:28:43.163Z,11.40
2022-12-11T06:31:10.607Z,12.23
2022-12-11T06:33:41.676Z,11.50
2022-12-11T06:36:10.479Z,10.90
2022-12-11T06:38:38.182Z,11.33
2022-12-11T06:41:06.198Z,11.63
2022-12-11T06:43:34.157Z,12.93
2022-12-11T06:46:05.297Z,11.80
2022-12-11T06:48:33.206Z,12.27
2022-12-11T06:51:00.648Z,10.87
2022-12-11T06:53:28.116Z,11.93
2022-12-11T06:55:55.520Z,10.87
2022-12-11T06:58:22.878Z,10.27
2022-12-11T07:00:50.620Z,10.00
2022-12-11T07:03:17.958Z,12.20
2022-12-11T07:05:45.320Z,12.67
2022-12-11T07:08:12.734Z,12.17
2022-12-11T07:10:40.600Z,12.23
2022-12-11T07:13:07.971Z,10.90
2022-12-11T07:15:40.147Z,13.63
2022-12-11T07:18:07.839Z,14.03
2022-12-11T07:20:35.320Z,14.17
2022-12-11T07:23:02.688Z,11.63
2022-12-11T07:25:30.041Z,11.23
2022-12-11T07:27:57.970Z,10.23
2022-12-11T07:30:25.352Z,12.37
2022-12-11T07:32:52.748Z,12.03
2022-12-11T07:35:20.200Z,10.03
2022-12-11T07:37:47.599Z,8.77
2022-12-11T07:40:15.120Z,8.87
2022-12-11T07:42:46.110Z,7.27
2022-12-11T07:45:14.086Z,8.90
2022-12-11T07:47:41.557Z,9.00
2022-12-11T07:50:09.189Z,8.70
2022-12-11T07:52:37.040Z,8.37
2022-12-11T07:55:04.881Z,8.37
2022-12-11T07:57:32.279Z,14.40
2022-12-11T07:59:59.597Z,14.60
2022-12-11T08:02:27.821Z,10.27
2022-12-11T08:04:56.598Z,14.97
2022-12-11T08:07:23.877Z,24.13
2022-12-11T08:09:51.239Z,16.13
2022-12-11T08:12:18.520Z,14.40
2022-12-11T08:14:45.876Z,23.00
2022-12-11T08:17:13.317Z,11.10
2022-12-11T08:19:40.639Z,11.20
2022-12-11T08:22:07.963Z,11.40
2022-12-11T08:24:35.397Z,6.87
2022-12-11T08:27:02.757Z,7.90
2022-12-11T08:29:30.121Z,9.73
2022-12-11T08:31:57.477Z,8.77
2022-12-11T08:34:24.800Z,8.97
2022-12-11T08:36:52.199Z,7.57
2022-12-11T08:39:19.958Z,8.90
2022-12-11T08:41:47.542Z,6.60
2022-12-11T08:44:16.895Z,7.30
2022-12-11T08:46:44.519Z,8.03
2022-12-11T08:49:12.157Z,7.93
2022-12-11T08:51:39.563Z,6.60
2022-12-11T08:54:07.441Z,8.40
2022-12-11T08:56:35.680Z,7.83
2022-12-11T08:59:04.317Z,8.57
2022-12-11T09:01:31.980Z,7.50
2022-12-11T09:03:59.399Z,6.93
2022-12-11T09:06:28.210Z,7.67
2022-12-11T09:08:56.277Z,6.67
2022-12-11T09:11:25.597Z,7.27
2022-12-11T09:13:53.360Z,11.70
2022-12-11T09:16:21.777Z,10.97
2022-12-11T09:18:50.197Z,8.53
2022-12-11T09:21:18.599Z,10.77
2022-12-11T09:23:46.638Z,10.43
2022-12-11T09:26:15.519Z,10.13
2022-12-11T09:28:46.568Z,8.03
2022-12-11T09:31:18.620Z,6.73
2022-12-11T09:33:46.200Z,5.53
2022-12-11T09:36:13.604Z,6.67
2022-12-11T09:38:43.441Z,5.77
2022-12-11T09:41:31.119Z,6.83
2022-12-11T09:43:58.524Z,7.30
2022-12-11T09:46:32.134Z,5.17
2022-12-11T09:49:02.245Z,7.00
2022-12-11T09:51:37.839Z,5.07
2022-12-11T09:54:05.640Z,5.43
2022-12-11T09:56:46.446Z,4.00
2022-12-11T09:59:32.680Z,4.77
2022-12-11T10:02:04.397Z,5.07
2022-12-11T10:04:43.882Z,7.97
2022-12-11T10:07:19.241Z,6.07
2022-12-11T10:09:59.199Z,5.87
2022-12-11T10:12:26.517Z,6.67
2022-12-11T10:14:56.896Z,5.93
2022-12-11T10:17:28.492Z,6.07
2022-12-11T10:19:57.320Z,6.47
2022-12-11T10:22:28.038Z,5.17
2022-12-11T10:25:10.577Z,4.63
2022-12-11T10:27:40.120Z,5.43
2022-12-11T10:30:16.404Z,6.37
2022-12-11T10:32:49.957Z,6.63
2022-12-11T10:35:25.757Z,6.27
2022-12-11T10:37:56.000Z,7.53
2022-12-11T10:40:24.599Z,7.83
2022-12-11T10:42:53.437Z,9.20
2022-12-11T10:45:20.878Z,9.00
2022-12-11T10:47:48.360Z,9.13
2022-12-11T10:50:26.279Z,8.33
2022-12-11T10:52:54.041Z,8.97
2022-12-11T10:55:23.641Z,10.83
2022-12-11T10:58:02.039Z,10.13
2022-12-11T11:00:31.848Z,9.30
2022-12-11T11:02:59.665Z,9.40
2022-12-11T11:05:32.558Z,8.93
2022-12-11T11:08:05.927Z,8.13
2022-12-11T11:10:33.437Z,9.33
2022-12-11T11:13:01.998Z,7.90
2022-12-11T11:15:30.977Z,8.83
2022-12-11T11:18:16.245Z,8.50
2022-12-11T11:20:47.948Z,8.17
2022-12-11T11:23:17.207Z,10.20
2022-12-11T11:26:03.660Z,10.47
2022-12-11T11:28:34.770Z,10.63
2022-12-11T11:31:07.427Z,9.67
2022-12-11T11:33:36.120Z,9.30
2022-12-11T11:36:07.879Z,7.87
2022-12-11T11:38:50.919Z,9.10
2022-12-11T11:41:20.999Z,7.77
2022-12-11T11:43:51.844Z,11.23
2022-12-11T11:46:36.636Z,8.43
2022-12-11T11:49:12.958Z,9.30
2022-12-11T11:51:52.360Z,10.03
2022-12-11T11:54:39.962Z,9.67
2022-12-11T11:57:39.479Z,7.37
2022-12-11T12:00:10.957Z,8.77
2022-12-11T12:02:38.580Z,10.30
2022-12-11T12:05:06.199Z,8.90
2022-12-11T12:07:41.919Z,9.87
2022-12-11T12:10:38.399Z,9.47
2022-12-11T12:19:29.521Z,9.60
2022-12-11T12:21:57.642Z,8.23
2022-12-11T12:24:27.720Z,9.57
2022-12-11T12:27:00.039Z,8.73
2022-12-11T12:29:41.944Z,8.03
2022-12-11T12:32:16.803Z,8.47
2022-12-11T12:35:02.361Z,7.97
2022-12-11T12:37:38.758Z,7.90
2022-12-11T12:40:06.438Z,8.23
2022-12-11T12:42:36.477Z,6.90
2022-12-11T12:45:14.145Z,8.03
2022-12-11T12:47:43.118Z,7.30
2022-12-11T12:50:17.364Z,7.03
2022-12-11T12:52:45.239Z,5.47
2022-12-11T12:55:24.684Z,7.23
2022-12-11T12:58:02.678Z,8.70
2022-12-11T13:00:32.719Z,8.10
2022-12-11T13:03:02.323Z,6.90
2022-12-11T13:05:34.396Z,8.33
2022-12-11T13:08:03.733Z,8.70
2022-12-11T13:10:33.321Z,7.27
2022-12-11T13:13:01.958Z,8.47
2022-12-11T13:15:45.767Z,7.30
2022-12-11T13:18:33.487Z,7.30
2022-12-11T13:21:01.117Z,7.50
2022-12-11T13:23:33.607Z,9.13
2022-12-11T13:26:05.288Z,7.70
2022-12-11T13:28:38.759Z,8.57
2022-12-11T13:31:09.121Z,7.07
2022-12-11T13:33:39.956Z,6.83
2022-12-11T13:36:28.082Z,6.40
2022-12-11T13:38:58.640Z,8.20
2022-12-11T13:41:26.238Z,9.33
2022-12-11T13:43:53.917Z,6.83
2022-12-11T13:46:27.318Z,7.40
2022-12-11T13:48:57.443Z,5.93
2022-12-11T13:51:25.861Z,7.13
2022-12-11T13:54:05.445Z,8.60
2022-12-11T13:56:33.167Z,7.30
2022-12-11T13:59:00.676Z,6.70
2022-12-11T14:01:33.224Z,6.37
2022-12-11T14:04:03.637Z,5.70
2022-12-11T14:06:31.582Z,7.47
2022-12-11T14:09:00.396Z,4.77
2022-12-11T14:11:38.598Z,6.90
2022-12-11T14:14:07.638Z,5.87
2022-12-11T14:16:35.383Z,4.80
2022-12-11T14:19:07.121Z,7.57
2022-12-11T14:21:34.725Z,4.83
2022-12-11T14:24:06.750Z,6.83
2022-12-11T14:26:35.438Z,5.70
2022-12-11T14:29:03.157Z,5.70
2022-12-11T14:31:32.882Z,5.67
2022-12-11T14:34:13.560Z,7.43
2022-12-11T14:36:42.357Z,5.10
2022-12-11T14:39:14.681Z,7.23
2022-12-11T14:41:53.519Z,5.83
2022-12-11T14:44:22.241Z,7.40
2022-12-11T14:46:51.197Z,7.93
2022-12-11T14:49:29.919Z,6.10
2022-12-11T14:51:58.607Z,6.33
2022-12-11T14:54:46.634Z,6.40
2022-12-11T14:57:21.280Z,6.53
2022-12-11T14:59:50.923Z,5.57
2022-12-11T15:02:30.471Z,9.03
2022-12-11T15:05:03.437Z,7.70
2022-12-11T15:07:30.960Z,6.83
2022-12-11T15:09:58.361Z,6.67
2022-12-11T15:12:25.797Z,5.90
2022-12-11T15:14:55.082Z,6.30
2022-12-11T15:17:23.147Z,6.20
2022-12-11T15:19:52.285Z,7.60
2022-12-11T15:22:20.919Z,6.93
2022-12-11T15:24:51.402Z,7.23
2022-12-11T15:27:21.439Z,6.60
2022-12-11T15:29:48.800Z,6.77
2022-12-11T15:32:19.161Z,7.83
2022-12-11T15:34:59.544Z,5.77
2022-12-11T15:37:26.943Z,8.30
2022-12-11T15:39:55.022Z,7.43
2022-12-11T15:42:27.157Z,7.83
2022-12-11T15:44:55.759Z,6.40
2022-12-11T15:47:27.638Z,7.13
2022-12-11T15:49:56.997Z,8.20
2022-12-11T15:52:24.400Z,8.83
2022-12-11T15:54:51.924Z,6.27
2022-12-11T15:57:21.082Z,6.17
2022-12-11T15:59:49.037Z,6.50
2022-12-11T16:02:16.743Z,6.97
2022-12-11T16:04:44.359Z,5.43
2022-12-11T16:07:22.400Z,7.63
2022-12-11T16:09:49.799Z,7.10
2022-12-11T16:12:17.238Z,8.00
2022-12-11T16:14:45.608Z,8.10
2022-12-11T16:17:13.923Z,8.97
2022-12-11T16:19:41.799Z,9.60
2022-12-11T16:22:09.677Z,7.77
2022-12-11T16:24:37.490Z,7.93
2022-12-11T16:27:05.320Z,6.60
2022-12-11T16:29:36.519Z,5.67
2022-12-11T16:32:04.243Z,7.50
2022-12-11T16:34:31.678Z,8.17
2022-12-11T16:36:59.398Z,8.20
2022-12-11T16:39:27.040Z,7.40
2022-12-11T16:41:57.438Z,7.90
2022-12-11T16:44:26.039Z,10.20
2022-12-11T16:46:53.923Z,9.63
2022-12-11T16:49:23.079Z,6.77
2022-12-11T16:51:50.538Z,6.63
2022-12-11T16:54:17.922Z,6.20
2022-12-11T16:56:45.523Z,5.13
2022-12-11T16:59:13.096Z,4.67
2022-12-11T17:01:40.701Z,5.43
2022-12-11T17:04:08.362Z,7.03
2022-12-11T17:06:35.723Z,6.00
2022-12-11T17:09:03.164Z,6.33
2022-12-11T17:11:30.498Z,7.27
2022-12-11T17:13:58.720Z,6.13
2022-12-11T17:16:29.205Z,6.90
2022-12-11T17:18:57.600Z,6.00
2022-12-11T17:21:25.158Z,7.07
2022-12-11T17:23:52.917Z,5.30
2022-12-11T17:26:20.482Z,6.47
2022-12-11T17:28:48.092Z,5.27
2022-12-11T17:31:17.235Z,5.37
2022-12-11T17:33:45.083Z,7.27
2022-12-11T17:36:14.005Z,7.03
2022-12-11T17:38:41.640Z,6.73
2022-12-11T17:41:11.425Z,5.30
2022-12-11T17:43:42.437Z,5.70
2022-12-11T17:46:11.496Z,5.40
2022-12-11T17:48:39.041Z,4.67
2022-12-11T17:51:07.721Z,4.93
2022-12-11T17:53:36.309Z,4.37
2022-12-11T17:56:04.663Z,4.33
2022-12-11T17:58:32.439Z,3.03
2022-12-11T18:01:00.040Z,5.13
2022-12-11T18:03:28.450Z,3.90
2022-12-11T18:05:58.931Z,4.97
2022-12-11T18:08:29.819Z,4.03
2022-12-11T18:10:57.797Z,3.33
2022-12-11T18:13:25.317Z,3.87
2022-12-11T18:16:02.846Z,4.73
2022-12-11T18:18:30.360Z,4.93
2022-12-11T18:20:57.881Z,6.27
2022-12-11T18:23:25.362Z,4.43
2022-12-11T18:25:52.798Z,4.27
2022-12-11T18:28:20.319Z,5.20
2022-12-11T18:30:48.161Z,3.67
2022-12-11T18:33:15.636Z,3.60
2022-12-11T18:35:43.128Z,5.60
2022-12-11T18:38:10.517Z,4.40
2022-12-11T18:40:39.077Z,4.47
2022-12-11T18:43:06.439Z,5.17
2022-12-11T18:45:33.760Z,4.23
2022-12-11T18:48:01.121Z,4.27
2022-12-11T18:50:28.400Z,6.70
2022-12-11T18:52:57.119Z,5.53
2022-12-11T18:55:24.400Z,5.00
2022-12-11T18:57:51.680Z,6.40
2022-12-11T19:00:19.935Z,4.90
2022-12-11T19:02:47.479Z,4.70
2022-12-11T19:05:15.016Z,5.53
2022-12-11T19:07:42.520Z,4.10
2022-12-11T19:10:10.087Z,6.23
2022-12-11T19:12:37.629Z,3.83
2022-12-11T19:15:05.174Z,5.73
2022-12-11T19:17:32.438Z,45.93
2022-12-11T19:20:05.245Z,11.77
2022-12-11T19:22:36.919Z,5.87
2022-12-11T19:25:05.599Z,6.80
2022-12-11T19:27:32.961Z,5.80
2022-12-11T19:30:03.197Z,6.70
2022-12-11T19:32:36.030Z,3.40
2022-12-11T19:35:03.997Z,6.53
2022-12-11T19:37:31.318Z,9.10
2022-12-11T19:39:58.758Z,4.67
2022-12-11T19:42:27.246Z,6.00
2022-12-11T19:44:54.877Z,4.83
2022-12-11T19:47:22.145Z,6.43
2022-12-11T19:49:49.639Z,5.50
2022-12-11T19:52:17.037Z,4.60
2022-12-11T19:54:44.437Z,3.80
2022-12-11T19:57:11.797Z,4.60
2022-12-11T19:59:40.518Z,4.70
2022-12-11T20:02:08.559Z,5.53
2022-12-11T20:04:36.119Z,4.17
2022-12-11T20:07:04.465Z,4.37
2022-12-11T20:09:33.838Z,5.13
2022-12-11T20:12:02.404Z,6.20
2022-12-11T20:14:30.162Z,3.00
2022-12-11T20:17:14.717Z,4.67
2022-12-11T20:19:42.925Z,3.43
2022-12-11T20:22:10.574Z,5.20
2022-12-11T20:24:38.005Z,3.40
2022-12-11T20:27:05.437Z,2.87
2022-12-11T20:29:33.253Z,3.80
2022-12-11T20:32:00.751Z,5.17
2022-12-11T20:34:28.456Z,4.13
2022-12-11T20:36:56.489Z,4.90
2022-12-11T20:39:23.889Z,3.60
2022-12-11T20:41:52.561Z,5.00
2022-12-11T20:44:20.359Z,4.30
2022-12-11T20:46:47.882Z,3.67
2022-12-11T20:49:15.239Z,4.77
2022-12-11T20:51:42.686Z,3.53
2022-12-11T20:54:10.243Z,3.17
2022-12-11T20:56:39.600Z,4.60
2022-12-11T20:59:06.999Z,2.83
2022-12-11T21:01:35.101Z,2.70
2022-12-11T21:04:02.800Z,1.83
2022-12-11T21:06:31.864Z,2.87
2022-12-11T21:09:00.367Z,2.43
2022-12-11T21:11:27.957Z,3.47
2022-12-11T21:13:55.499Z,1.97
2022-12-11T21:16:23.223Z,3.00
2022-12-11T21:18:50.717Z,1.83
2022-12-11T21:21:18.722Z,2.10
2022-12-11T21:23:46.183Z,5.17
2022-12-11T21:26:14.082Z,3.63
2022-12-11T21:28:41.480Z,2.57
2022-12-11T21:31:10.559Z,2.07
2022-12-11T21:33:37.960Z,2.40
2022-12-11T21:36:07.197Z,2.40
2022-12-11T21:38:34.557Z,2.70
2022-12-11T21:41:21.517Z,2.00
2022-12-11T21:46:38.777Z,3.60
2022-12-11T21:49:08.397Z,3.50
2022-12-11T21:51:39.490Z,2.57
2022-12-11T21:54:13.559Z,3.33
2022-12-11T21:56:41.483Z,3.07
2022-12-11T21:59:09.120Z,3.37
2022-12-11T22:01:37.759Z,2.20
2022-12-11T22:04:05.999Z,2.87
2022-12-11T22:06:33.683Z,2.60
2022-12-11T22:09:01.196Z,3.60
2022-12-11T22:11:29.837Z,2.87
2022-12-11T22:13:57.477Z,2.77
2022-12-11T22:16:25.177Z,3.53
2022-12-11T22:18:52.678Z,2.37
2022-12-11T22:21:20.242Z,3.00
2022-12-11T22:23:47.761Z,3.00
2022-12-11T22:26:22.477Z,2.70
2022-12-11T22:28:50.517Z,2.70
2022-12-11T22:31:20.596Z,2.80
2022-12-11T22:33:50.062Z,2.57
2022-12-11T22:36:19.154Z,2.53
2022-12-11T22:38:46.757Z,3.47
2022-12-11T22:41:21.893Z,2.53
2022-12-11T22:43:49.840Z,2.43
2022-12-11T22:46:18.077Z,2.40
2022-12-11T22:48:45.477Z,2.80
2022-12-11T22:51:12.998Z,2.07
2022-12-11T22:53:40.438Z,4.03
2022-12-11T22:56:08.964Z,3.10
2022-12-11T22:58:36.478Z,3.17
2022-12-11T23:01:04.718Z,2.73
2022-12-11T23:03:32.045Z,2.90
2022-12-11T23:06:04.828Z,2.70
2022-12-11T23:08:33.225Z,2.90
2022-12-11T23:11:00.767Z,2.37
2022-12-11T23:13:28.117Z,3.10
2022-12-11T23:15:55.436Z,2.00
2022-12-11T23:18:22.838Z,2.93
2022-12-11T23:20:50.438Z,3.33
2022-12-11T23:23:17.797Z,2.67
2022-12-11T23:25:45.080Z,3.97
2022-12-11T23:28:12.562Z,3.73
2022-12-11T23:30:39.887Z,2.53
2022-12-11T23:33:07.444Z,2.20
2022-12-11T23:35:35.081Z,3.33
2022-12-11T23:38:05.080Z,3.57
2022-12-11T23:40:32.956Z,3.30
2022-12-11T23:43:00.277Z,2.57
2022-12-11T23:45:27.761Z,2.43
2022-12-11T23:47:55.197Z,3.37
2022-12-11T23:50:22.876Z,2.23
2022-12-11T23:52:50.278Z,3.80
2022-12-11T23:55:17.637Z,2.43
2022-12-11T23:57:44.998Z,2.97
